Time;durP1;ratioP1;P1;durP2;ratioP2;P2;SDS_P1;SDS_P2;PMS_P1;PMS_P2;Temp;Humidity;BMP_temperature;BMP_pressure;BME280_temperature;BME280_humidity;BME280_pressure;Samples;Min_cycle;Max_cycle;Signal;HPM_P1;HPM_P2
2023/09/25 00:01:12;;;;;;;3.33;1.85;;;;;;;10.17;70.42;93518.31;2028694;70;20161;-74
2023/09/25 00:03:38;;;;;;;3.45;1.67;;;;;;;10.02;70.30;93512.94;2029208;70;20493;-74
2023/09/25 00:06:04;;;;;;;3.83;1.95;;;;;;;10.04;70.75;93516.66;2029383;70;20149;-74
2023/09/25 00:08:30;;;;;;;3.72;1.90;;;;;;;10.06;70.55;93513.25;2028949;70;20489;-75
2023/09/25 00:10:55;;;;;;;4.53;1.98;;;;;;;10.00;70.98;93504.38;2029147;70;20162;-74
2023/09/25 00:13:21;;;;;;;3.33;1.98;;;;;;;10.02;71.05;93508.06;2029219;70;20152;-74
2023/09/25 00:15:47;;;;;;;3.65;2.15;;;;;;;9.89;71.16;93502.84;2029331;70;20163;-74
2023/09/25 00:18:14;;;;;;;3.53;1.90;;;;;;;9.76;71.98;93506.06;2028443;70;20148;-74
2023/09/25 00:20:40;;;;;;;2.83;1.80;;;;;;;9.77;71.18;93496.31;2029224;70;20222;-74
2023/09/25 00:23:06;;;;;;;4.93;2.08;;;;;;;9.76;71.02;93492.75;2028787;70;20149;-73
2023/09/25 00:25:32;;;;;;;3.05;1.70;;;;;;;9.72;72.17;93494.53;2029004;70;20604;-73
2023/09/25 00:27:59;;;;;;;4.22;1.75;;;;;;;9.72;71.25;93494.53;2029147;70;20147;-74
2023/09/25 00:30:25;;;;;;;3.05;1.88;;;;;;;9.73;71.71;93496.75;2029001;70;20617;-74
2023/09/25 00:32:51;;;;;;;2.70;1.90;;;;;;;9.60;71.54;93481.00;2028494;70;20520;-73
2023/09/25 00:35:20;;;;;;;3.55;2.33;;;;;;;9.60;72.20;93485.88;2029996;70;20595;-74
2023/09/25 00:37:47;;;;;;;3.85;1.85;;;;;;;9.62;71.83;93483.22;2032476;70;20144;-74
2023/09/25 00:40:21;;;;;;;2.50;1.73;;;;;;;9.59;71.43;93475.97;2032057;70;20167;-73
2023/09/25 00:42:56;;;;;;;3.15;1.70;;;;;;;9.58;72.18;93471.69;2031282;70;20148;-74
2023/09/25 00:45:22;;;;;;;3.05;1.88;;;;;;;9.61;71.75;93471.22;2031206;70;20699;-74
2023/09/25 00:47:50;;;;;;;4.43;1.83;;;;;;;9.55;71.95;93472.84;2031326;70;20236;-74
2023/09/25 00:50:18;;;;;;;4.68;1.88;;;;;;;9.60;72.53;93469.00;2032168;70;20647;-73
2023/09/25 00:52:47;;;;;;;5.63;1.70;;;;;;;9.51;71.98;93469.72;2032248;70;20251;-74
2023/09/25 00:55:14;;;;;;;3.65;1.90;;;;;;;9.27;73.32;93477.03;2031736;70;20140;-75
2023/09/25 00:57:41;;;;;;;2.97;1.80;;;;;;;9.42;72.61;93476.78;2031632;70;20585;-74
2023/09/25 01:00:11;;;;;;;6.22;1.80;;;;;;;9.32;72.68;93476.75;2031503;70;20259;-74
2023/09/25 01:02:38;;;;;;;3.15;1.80;;;;;;;9.40;71.77;93476.63;2031488;70;20160;-72
2023/09/25 01:05:08;;;;;;;3.30;1.88;;;;;;;9.37;72.61;93481.34;2031824;70;20176;-74
2023/09/25 01:07:40;;;;;;;5.50;1.85;;;;;;;9.36;72.11;93482.69;2032044;70;20228;-73
2023/09/25 01:10:17;;;;;;;2.88;1.90;;;;;;;9.28;73.44;93470.06;2032129;70;20225;-73
2023/09/25 01:12:44;;;;;;;3.58;1.50;;;;;;;9.45;72.01;93488.94;2031969;70;20153;-73
2023/09/25 01:15:14;;;;;;;2.92;1.70;;;;;;;9.44;73.05;93482.56;2028922;70;20630;-73
2023/09/25 01:17:41;;;;;;;3.47;1.80;;;;;;;9.46;71.86;93476.38;2031579;70;20255;-73
2023/09/25 01:20:17;;;;;;;3.65;1.73;;;;;;;9.39;72.15;93475.13;2032238;70;20171;-73
2023/09/25 01:22:45;;;;;;;6.70;1.88;;;;;;;9.23;72.54;93483.06;2031926;70;20132;-75
2023/09/25 01:25:11;;;;;;;4.60;1.70;;;;;;;9.04;74.38;93485.78;2033063;70;20235;-73
2023/09/25 01:27:38;;;;;;;5.50;1.80;;;;;;;9.03;73.66;93482.22;2032734;70;20616;-73
2023/09/25 01:30:05;;;;;;;3.35;1.73;;;;;;;9.01;73.60;93496.09;2032467;70;20156;-73
2023/09/25 01:32:31;;;;;;;5.18;2.10;;;;;;;9.11;73.16;93494.06;2032646;70;20143;-73
2023/09/25 01:34:57;;;;;;;3.80;1.80;;;;;;;9.02;73.53;93494.03;2032640;70;20136;-73
2023/09/25 01:37:23;;;;;;;2.38;1.60;;;;;;;8.82;74.65;93491.09;2032574;70;20588;-74
2023/09/25 01:39:48;;;;;;;2.65;1.80;;;;;;;8.93;74.42;93503.13;2032169;70;20272;-74
2023/09/25 01:42:14;;;;;;;4.13;2.05;;;;;;;8.91;74.19;93503.72;2033153;70;20191;-73
2023/09/25 01:44:40;;;;;;;3.70;2.20;;;;;;;8.88;74.62;93510.50;2033038;70;20156;-75
2023/09/25 01:47:06;;;;;;;3.25;2.00;;;;;;;8.94;74.29;93513.06;2032785;70;20161;-75
2023/09/25 01:49:32;;;;;;;3.42;1.58;;;;;;;8.92;73.68;93508.00;2032640;70;20164;-74
2023/09/25 01:51:58;;;;;;;4.80;2.00;;;;;;;8.84;74.41;93510.16;2032912;70;20144;-74
2023/09/25 01:54:24;;;;;;;4.80;2.15;;;;;;;8.85;74.19;93503.25;2032963;70;20160;-75
2023/09/25 01:56:51;;;;;;;4.88;2.38;;;;;;;8.84;73.97;93502.50;2029904;70;20195;-75
2023/09/25 01:59:17;;;;;;;4.00;1.90;;;;;;;8.90;73.16;93494.56;2032694;70;20136;-74
2023/09/25 02:01:42;;;;;;;2.35;1.63;;;;;;;8.83;73.52;93486.97;2032729;70;20156;-74
2023/09/25 02:04:08;;;;;;;4.75;2.00;;;;;;;8.89;73.52;93498.69;2032570;70;20152;-74
2023/09/25 02:06:34;;;;;;;5.68;2.10;;;;;;;8.80;74.68;93509.88;2032697;70;20160;-74
2023/09/25 02:09:00;;;;;;;3.42;1.80;;;;;;;8.81;74.09;93506.47;2033120;70;20225;-75
2023/09/25 02:11:25;;;;;;;3.35;2.03;;;;;;;8.76;74.68;93506.72;2032842;70;20719;-75
2023/09/25 02:13:57;;;;;;;3.40;1.75;;;;;;;8.71;74.21;93508.47;2032917;70;20144;-74
2023/09/25 02:16:22;;;;;;;4.35;2.10;;;;;;;8.76;73.40;93503.91;2032350;70;20200;-74
2023/09/25 02:18:48;;;;;;;2.38;1.70;;;;;;;8.68;73.99;93504.00;2033049;70;20147;-75
2023/09/25 02:21:16;;;;;;;5.38;1.95;;;;;;;8.62;73.74;93493.03;2033078;70;20654;-74
2023/09/25 02:23:42;;;;;;;3.78;1.60;;;;;;;8.65;73.82;93500.28;2033082;70;20164;-74
2023/09/25 02:26:08;;;;;;;2.80;2.08;;;;;;;8.62;74.11;93497.91;2032644;70;20148;-74
2023/09/25 02:28:34;;;;;;;3.00;1.65;;;;;;;8.64;73.78;93504.41;2033031;70;20186;-74
2023/09/25 02:31:00;;;;;;;4.15;1.58;;;;;;;8.66;74.04;93506.66;2032396;70;20160;-71
2023/09/25 02:33:27;;;;;;;5.93;2.10;;;;;;;8.61;74.19;93504.81;2032920;70;20191;-74
2023/09/25 02:36:04;;;;;;;8.23;2.08;;;;;;;8.61;73.91;93507.63;2032492;70;20232;-73
2023/09/25 02:38:30;;;;;;;3.35;1.85;;;;;;;8.54;74.00;93505.66;2032077;70;20590;-76
2023/09/25 02:40:56;;;;;;;4.35;1.80;;;;;;;8.53;73.97;93501.38;2032588;70;20172;-73
2023/09/25 02:43:21;;;;;;;3.42;1.80;;;;;;;8.52;74.34;93505.50;2032513;70;20221;-73
2023/09/25 02:45:47;;;;;;;4.28;2.13;;;;;;;8.47;74.59;93504.41;2032343;70;20189;-74
2023/09/25 02:48:13;;;;;;;3.38;1.50;;;;;;;8.47;74.50;93504.41;2031897;70;20161;-74
2023/09/25 02:50:38;;;;;;;5.68;1.90;;;;;;;8.44;74.42;93505.59;2031680;70;20144;-74
2023/09/25 02:53:04;;;;;;;2.92;1.90;;;;;;;8.41;74.68;93501.13;2031887;70;20585;-73
2023/09/25 02:55:30;;;;;;;2.63;1.60;;;;;;;8.46;74.50;93510.63;2032449;70;20168;-74
2023/09/25 02:57:55;;;;;;;3.20;1.60;;;;;;;8.47;74.71;93509.28;2031878;70;20160;-74
2023/09/25 03:00:22;;;;;;;2.22;1.63;;;;;;;8.40;74.29;93502.44;2031675;70;20236;-73
2023/09/25 03:02:47;;;;;;;2.78;1.80;;;;;;;8.45;74.10;93495.09;2031703;70;20140;-73
2023/09/25 03:05:14;;;;;;;4.75;1.70;;;;;;;7.94;76.62;93511.28;2031846;70;20268;-71
2023/09/25 03:07:40;;;;;;;4.50;2.10;;;;;;;8.14;75.74;93512.97;2031769;70;20707;-73
2023/09/25 03:10:07;;;;;;;3.15;1.98;;;;;;;8.16;75.15;93512.41;2032251;70;20140;-74
2023/09/25 03:12:38;;;;;;;4.13;1.95;;;;;;;8.18;74.74;93500.59;2031794;70;20168;-74
2023/09/25 03:15:04;;;;;;;3.78;2.00;;;;;;;8.19;74.83;93497.22;2032114;70;20555;-74
2023/09/25 03:17:32;;;;;;;8.13;2.50;;;;;;;8.23;74.30;93491.19;2032235;70;20156;-73
2023/09/25 03:19:58;;;;;;;4.72;2.10;;;;;;;8.07;75.05;93496.22;2032160;70;20152;-74
2023/09/25 03:22:24;;;;;;;3.20;1.80;;;;;;;8.13;74.97;93496.72;2031663;70;20577;-75
2023/09/25 03:24:50;;;;;;;2.85;1.92;;;;;;;8.22;74.43;93503.75;2031339;70;20196;-74
2023/09/25 03:27:16;;;;;;;4.50;1.92;;;;;;;8.11;74.81;93505.72;2032257;70;20132;-73
2023/09/25 03:29:43;;;;;;;3.65;1.90;;;;;;;8.11;74.30;93502.19;2031512;70;20160;-73
2023/09/25 03:32:08;;;;;;;3.70;1.80;;;;;;;8.07;74.65;93507.44;2031847;70;20591;-73
2023/09/25 03:34:34;;;;;;;3.22;2.13;;;;;;;8.04;75.02;93503.72;2032155;70;20164;-74
2023/09/25 03:36:59;;;;;;;4.35;1.98;;;;;;;8.04;74.65;93512.13;2032000;70;20279;-74
2023/09/25 03:39:25;;;;;;;4.35;2.00;;;;;;;8.01;74.53;93501.31;2032053;70;20711;-74
2023/09/25 03:41:50;;;;;;;3.35;1.90;;;;;;;7.96;75.48;93496.69;2031999;70;20148;-74
2023/09/25 03:44:17;;;;;;;4.15;2.08;;;;;;;7.95;75.20;93501.56;2032107;70;20623;-74
2023/09/25 03:46:43;;;;;;;4.97;2.17;;;;;;;7.90;74.95;93491.31;2032154;70;20152;-74
2023/09/25 03:49:09;;;;;;;6.22;2.63;;;;;;;7.96;75.31;93496.69;2032324;70;20179;-74
2023/09/25 03:51:35;;;;;;;4.40;2.25;;;;;;;7.94;75.19;93502.13;2032335;70;20529;-74
2023/09/25 03:54:01;;;;;;;2.97;1.92;;;;;;;7.86;75.32;93500.13;2032878;70;20566;-74
2023/09/25 03:56:29;;;;;;;3.95;2.20;;;;;;;7.87;74.95;93498.06;2031884;70;20701;-74
2023/09/25 03:58:55;;;;;;;2.75;1.80;;;;;;;7.86;74.76;93493.78;2032727;70;20496;-75
2023/09/25 04:01:21;;;;;;;3.28;2.00;;;;;;;7.75;76.37;93492.22;2032717;70;20622;-75
2023/09/25 04:03:47;;;;;;;5.00;2.25;;;;;;;7.67;77.38;93497.13;2032675;70;20149;-75
2023/09/25 04:06:12;;;;;;;4.43;2.15;;;;;;;7.74;76.61;93501.91;2032705;70;20304;-76
2023/09/25 04:08:38;;;;;;;2.92;1.85;;;;;;;7.78;75.24;93499.47;2032692;70;20145;-75
2023/09/25 04:11:04;;;;;;;5.18;2.20;;;;;;;7.81;75.16;93506.72;2032511;70;20172;-75
2023/09/25 04:13:31;;;;;;;7.43;2.15;;;;;;;7.78;75.65;93498.72;2032524;70;20236;-75
2023/09/25 04:15:57;;;;;;;3.25;2.10;;;;;;;7.71;76.21;93486.25;2032639;70;20129;-75
2023/09/25 04:18:23;;;;;;;3.30;1.65;;;;;;;7.75;75.83;93497.06;2032596;70;20240;-75
2023/09/25 04:20:52;;;;;;;2.80;2.00;;;;;;;7.72;76.01;93487.00;2032746;70;20160;-76
2023/09/25 04:23:17;;;;;;;4.13;2.50;;;;;;;7.77;75.94;93481.16;2032713;70;20143;-75
2023/09/25 04:25:51;;;;;;;3.65;2.17;;;;;;;7.82;75.41;93473.81;2032701;70;20145;-75
2023/09/25 04:28:17;;;;;;;3.90;2.00;;;;;;;7.52;77.70;93472.03;2032608;70;20145;-75
2023/09/25 04:30:43;;;;;;;6.03;2.00;;;;;;;7.59;76.97;93469.16;2032583;70;20156;-76
2023/09/25 04:33:09;;;;;;;4.10;2.10;;;;;;;7.60;76.73;93472.72;2032359;70;20168;-75
2023/09/25 04:35:36;;;;;;;7.72;2.03;;;;;;;7.64;76.26;93478.66;2032327;70;20144;-76
2023/09/25 04:38:03;;;;;;;3.38;2.22;;;;;;;7.59;77.13;93485.97;2032268;70;20148;-73
2023/09/25 04:40:32;;;;;;;3.00;2.20;;;;;;;7.56;76.56;93489.94;2032936;70;20192;-74
2023/09/25 04:43:00;;;;;;;4.18;2.05;;;;;;;7.60;75.72;93486.72;2032781;70;20148;-74
2023/09/25 04:45:25;;;;;;;5.07;1.90;;;;;;;7.57;76.15;93482.28;2029681;70;20148;-74
2023/09/25 04:47:51;;;;;;;4.63;1.90;;;;;;;7.51;76.99;93476.13;2032571;70;20151;-73
2023/09/25 04:50:18;;;;;;;3.75;2.53;;;;;;;7.57;76.86;93487.88;2032892;70;20232;-73
2023/09/25 04:52:45;;;;;;;8.00;2.65;;;;;;;7.57;76.39;93487.88;2032863;70;20156;-74
2023/09/25 04:55:12;;;;;;;4.43;2.60;;;;;;;7.59;76.60;93480.38;2032885;70;20160;-73
2023/09/25 04:57:45;;;;;;;4.95;2.33;;;;;;;7.54;76.12;93486.94;2032696;70;20149;-74
2023/09/25 05:00:26;;;;;;;4.70;2.47;;;;;;;7.49;77.16;93485.13;2032803;70;20152;-74
2023/09/25 05:02:54;;;;;;;3.80;2.42;;;;;;;7.52;76.45;93494.47;2032831;70;20152;-74
2023/09/25 05:05:20;;;;;;;3.00;1.90;;;;;;;7.55;76.57;93476.50;2032601;70;20172;-74
2023/09/25 05:07:48;;;;;;;4.13;1.90;;;;;;;7.52;76.75;93480.44;2032308;70;20145;-73
2023/09/25 05:10:15;;;;;;;3.13;2.08;;;;;;;7.54;76.49;93475.75;2032559;70;20199;-75
2023/09/25 05:12:42;;;;;;;4.82;2.22;;;;;;;7.55;76.60;93482.81;2032692;70;20619;-75
2023/09/25 05:15:09;;;;;;;3.38;1.90;;;;;;;7.66;75.89;93476.03;2032662;70;20146;-75
2023/09/25 05:17:36;;;;;;;5.78;2.08;;;;;;;7.61;76.45;93477.00;2032583;70;20152;-75
2023/09/25 05:20:08;;;;;;;4.25;1.88;;;;;;;7.59;76.18;93479.63;2032678;70;20124;-75
2023/09/25 05:22:34;;;;;;;4.75;2.58;;;;;;;7.60;76.24;93472.72;2032587;70;20618;-74
2023/09/25 05:25:00;;;;;;;4.55;3.00;;;;;;;7.54;76.17;93475.00;2032812;70;20171;-74
2023/09/25 05:27:26;;;;;;;10.75;5.18;;;;;;;7.54;76.73;93466.59;2032372;70;20145;-74
2023/09/25 05:29:52;;;;;;;6.07;3.33;;;;;;;7.51;76.81;93476.13;2032765;70;20209;-74
2023/09/25 05:32:17;;;;;;;6.93;3.78;;;;;;;7.48;76.20;93477.31;2032156;70;20148;-74
2023/09/25 05:34:43;;;;;;;6.40;3.45;;;;;;;7.56;76.64;93487.13;2032302;70;20523;-74
2023/09/25 05:37:10;;;;;;;11.95;4.70;;;;;;;7.53;76.58;93482.66;2032780;70;20120;-74
2023/09/25 05:39:36;;;;;;;6.00;3.00;;;;;;;7.59;77.05;93480.38;2032764;70;20152;-75
2023/09/25 05:42:02;;;;;;;5.50;2.17;;;;;;;7.54;78.16;93477.81;2031916;70;20669;-76
2023/09/25 05:44:28;;;;;;;2.45;1.70;;;;;;;7.69;78.00;93474.13;2032715;70;20149;-75
2023/09/25 05:46:54;;;;;;;3.50;1.80;;;;;;;7.69;76.87;93466.47;2032694;70;20197;-76
2023/09/25 05:49:19;;;;;;;11.57;3.63;;;;;;;7.57;77.05;93477.41;2032769;70;20287;-75
2023/09/25 05:51:45;;;;;;;7.97;3.75;;;;;;;7.54;77.68;93483.41;2032493;70;20140;-74
2023/09/25 05:54:10;;;;;;;7.95;4.25;;;;;;;7.58;77.77;93486.56;2032482;70;20196;-74
2023/09/25 05:56:36;;;;;;;6.57;3.72;;;;;;;7.46;78.63;93486.25;2032374;70;20144;-74
2023/09/25 05:59:02;;;;;;;9.85;3.65;;;;;;;7.68;77.82;93489.47;2032260;70;20538;-74
2023/09/25 06:01:28;;;;;;;5.88;3.58;;;;;;;7.66;77.37;93487.25;2032674;70;20159;-75
2023/09/25 06:03:54;;;;;;;7.47;2.97;;;;;;;7.74;77.44;93487.91;2032533;70;20140;-75
2023/09/25 06:06:19;;;;;;;3.25;2.10;;;;;;;7.78;76.98;93481.91;2032454;70;20219;-76
2023/09/25 06:08:45;;;;;;;2.75;2.05;;;;;;;7.87;76.34;93484.78;2032463;70;20152;-74
2023/09/25 06:11:11;;;;;;;6.13;3.40;;;;;;;7.72;76.17;93484.94;2032327;70;20148;-74
2023/09/25 06:13:36;;;;;;;10.90;4.13;;;;;;;7.72;77.47;93490.53;2032091;70;20159;-75
2023/09/25 06:16:02;;;;;;;7.75;3.70;;;;;;;7.71;77.37;93472.25;2032990;70;20235;-75
2023/09/25 06:18:29;;;;;;;7.10;3.45;;;;;;;7.78;76.74;93487.50;2032936;70;20151;-74
2023/09/25 06:20:56;;;;;;;4.78;3.30;;;;;;;7.75;76.97;93478.19;2033057;70;20187;-74
2023/09/25 06:23:22;;;;;;;6.32;3.95;;;;;;;7.83;76.85;93495.69;2032485;70;20205;-74
2023/09/25 06:25:47;;;;;;;6.05;3.83;;;;;;;7.85;76.82;93497.91;2032377;70;20151;-74
2023/09/25 06:28:14;;;;;;;6.22;3.47;;;;;;;7.85;76.52;93492.31;2032767;70;20156;-73
2023/09/25 06:30:41;;;;;;;8.88;3.95;;;;;;;7.89;76.17;93490.59;2032924;70;20275;-75
2023/09/25 06:33:07;;;;;;;10.07;4.07;;;;;;;7.85;76.37;93495.13;2033178;70;20624;-76
2023/09/25 06:35:33;;;;;;;4.47;3.47;;;;;;;7.94;76.89;93496.53;2032757;70;20183;-74
2023/09/25 06:37:59;;;;;;;5.00;2.30;;;;;;;7.98;76.69;93496.88;2033037;70;20212;-75
2023/09/25 06:40:24;;;;;;;5.35;2.10;;;;;;;8.05;75.14;93504.47;2032918;70;20148;-75
2023/09/25 06:42:50;;;;;;;7.32;3.20;;;;;;;7.89;76.07;93503.88;2032501;70;20700;-74
2023/09/25 06:45:15;;;;;;;10.88;3.80;;;;;;;7.93;77.13;93504.22;2032846;70;20225;-75
2023/09/25 06:47:42;;;;;;;7.18;3.55;;;;;;;8.01;76.10;93512.53;2032892;70;20504;-74
2023/09/25 06:50:08;;;;;;;8.32;4.18;;;;;;;8.01;76.51;93513.28;2032844;70;20152;-75
2023/09/25 06:52:36;;;;;;;8.40;4.10;;;;;;;8.02;76.32;93514.78;2032412;70;20213;-75
2023/09/25 06:55:02;;;;;;;8.73;3.80;;;;;;;7.94;76.08;93502.88;2032885;70;20239;-75
2023/09/25 06:57:27;;;;;;;6.18;3.55;;;;;;;7.99;76.27;93501.91;2032807;70;20534;-74
2023/09/25 06:59:53;;;;;;;7.95;3.40;;;;;;;8.04;76.35;93498.09;2032949;70;20523;-73
2023/09/25 07:02:19;;;;;;;6.95;3.60;;;;;;;8.08;76.27;93494.91;2032790;70;20164;-74
2023/09/25 07:04:47;;;;;;;7.57;3.90;;;;;;;8.11;75.70;93505.72;2033109;70;20148;-75
2023/09/25 07:07:13;;;;;;;6.63;4.43;;;;;;;8.14;75.85;93486.97;2032840;70;20205;-74
2023/09/25 07:09:38;;;;;;;8.63;4.53;;;;;;;8.20;75.24;93493.09;2032791;70;20160;-75
2023/09/25 07:12:04;;;;;;;13.38;9.13;;;;;;;8.10;76.29;93492.25;2032744;70;20144;-74
2023/09/25 07:14:29;;;;;;;10.18;7.65;;;;;;;8.18;76.01;93492.19;2032878;70;20171;-75
2023/09/25 07:16:55;;;;;;;10.50;7.78;;;;;;;8.21;76.00;93496.66;2032602;70;20180;-74
2023/09/25 07:19:20;;;;;;;6.53;4.05;;;;;;;8.24;76.52;93499.03;2032941;70;20671;-74
2023/09/25 07:21:47;;;;;;;5.45;3.40;;;;;;;8.37;76.02;93495.19;2032810;70;20156;-75
2023/09/25 07:24:13;;;;;;;5.90;3.10;;;;;;;8.35;74.57;93495.00;2032886;70;20141;-74
2023/09/25 07:26:40;;;;;;;3.65;2.75;;;;;;;8.31;76.16;93506.63;2032858;70;20168;-74
2023/09/25 07:29:06;;;;;;;6.43;3.13;;;;;;;8.61;76.72;93505.59;2032216;70;20248;-75
2023/09/25 07:31:31;;;;;;;4.25;2.85;;;;;;;9.26;78.21;93492.41;2032900;70;20137;-74
2023/09/25 07:33:58;;;;;;;8.13;3.78;;;;;;;9.59;76.15;93504.09;2032703;70;20164;-75
2023/09/25 07:36:24;;;;;;;10.05;4.80;;;;;;;9.30;76.58;93506.75;2032940;70;20148;-74
2023/09/25 07:38:50;;;;;;;10.20;5.80;;;;;;;9.13;78.06;93497.06;2032814;70;20168;-74
2023/09/25 07:41:18;;;;;;;10.88;5.88;;;;;;;10.08;74.88;93499.34;2032811;70;20149;-74
2023/09/25 07:43:43;;;;;;;10.85;6.43;;;;;;;10.23;73.70;93501.91;2032683;70;20244;-75
2023/09/25 07:46:09;;;;;;;7.15;4.45;;;;;;;11.06;74.01;93495.25;2032895;70;20577;-75
2023/09/25 07:48:38;;;;;;;6.47;3.83;;;;;;;10.64;74.02;93494.41;2032071;70;20153;-74
2023/09/25 07:51:07;;;;;;;5.22;2.75;;;;;;;10.66;71.14;93490.97;2032663;70;20583;-74
2023/09/25 07:53:35;;;;;;;6.32;3.30;;;;;;;11.95;68.09;93487.41;2032823;70;20206;-74
2023/09/25 07:56:01;;;;;;;5.97;3.90;;;;;;;12.08;67.34;93480.50;2032885;70;20184;-75
2023/09/25 07:58:29;;;;;;;5.28;3.30;;;;;;;12.45;66.24;93480.13;2032757;70;20144;-75
2023/09/25 08:01:02;;;;;;;5.05;3.00;;;;;;;12.17;67.30;93485.38;2032913;70;20165;-75
2023/09/25 08:03:30;;;;;;;4.63;2.58;;;;;;;12.95;65.29;93482.69;2032840;70;20171;-75
2023/09/25 08:05:57;;;;;;;4.68;2.90;;;;;;;13.06;65.14;93481.28;2032773;70;20160;-75
2023/09/25 08:08:24;;;;;;;4.70;2.30;;;;;;;13.03;64.04;93471.19;2032139;70;20148;-74
2023/09/25 08:10:56;;;;;;;3.92;2.20;;;;;;;13.14;65.63;93470.47;2032497;70;20148;-75
2023/09/25 08:13:21;;;;;;;3.63;1.70;;;;;;;13.68;63.64;93471.72;2032585;70;20204;-75
2023/09/25 08:15:48;;;;;;;2.70;1.60;;;;;;;14.66;61.87;93477.56;2032879;70;20151;-76
2023/09/25 08:18:14;;;;;;;2.75;1.60;;;;;;;14.62;60.65;93468.84;2032626;70;20601;-76
2023/09/25 08:20:40;;;;;;;2.92;1.90;;;;;;;15.03;60.44;93473.97;2032786;70;20176;-76
2023/09/25 08:23:07;;;;;;;6.47;1.95;;;;;;;15.31;59.74;93474.84;2032906;70;20148;-73
2023/09/25 08:25:33;;;;;;;3.75;2.08;;;;;;;15.43;58.13;93479.09;2032952;70;20156;-73
2023/09/25 08:27:59;;;;;;;2.33;1.60;;;;;;;16.21;57.44;93481.16;2032415;70;20630;-74
2023/09/25 08:30:26;;;;;;;5.00;2.10;;;;;;;15.65;56.88;93476.75;2032778;70;20148;-75
2023/09/25 08:32:53;;;;;;;4.18;1.73;;;;;;;15.44;55.03;93471.31;2032051;70;20196;-75
2023/09/25 08:35:20;;;;;;;3.00;1.20;;;;;;;16.02;56.15;93473.03;2032694;70;20144;-75
2023/09/25 08:37:45;;;;;;;2.00;1.27;;;;;;;15.65;55.83;93470.34;2031327;70;20156;-74
2023/09/25 08:40:13;;;;;;;3.47;2.47;;;;;;;16.62;54.49;93456.94;2029332;70;20163;-74
2023/09/25 08:42:38;;;;;;;3.22;1.45;;;;;;;17.07;53.22;93453.50;2029098;70;20161;-74
2023/09/25 08:45:05;;;;;;;1.50;1.20;;;;;;;16.99;49.64;93463.09;2030495;70;20152;-75
2023/09/25 08:47:34;;;;;;;2.47;1.30;;;;;;;17.27;51.07;93460.16;2030629;70;20184;-74
2023/09/25 08:50:00;;;;;;;2.25;1.30;;;;;;;16.93;50.45;93459.94;2031877;70;20187;-75
2023/09/25 08:52:26;;;;;;;2.15;1.40;;;;;;;17.50;49.82;93457.00;2032592;70;20139;-75
2023/09/25 08:54:52;;;;;;;2.85;1.45;;;;;;;17.20;49.11;93453.44;2032327;70;20168;-75
2023/09/25 08:57:18;;;;;;;2.25;1.40;;;;;;;18.09;48.34;93438.31;2029219;70;20447;-75
2023/09/25 08:59:46;;;;;;;2.00;1.00;;;;;;;18.27;49.02;93439.13;2028910;70;20597;-75
2023/09/25 09:02:14;;;;;;;1.52;1.02;;;;;;;18.75;48.62;93442.66;2027893;70;20141;-75
2023/09/25 09:04:40;;;;;;;1.48;1.13;;;;;;;18.97;47.42;93437.88;2025427;70;20673;-75
2023/09/25 09:07:08;;;;;;;1.55;1.10;;;;;;;19.33;48.17;93443.59;2027868;70;20161;-76
2023/09/25 09:09:35;;;;;;;1.42;1.00;;;;;;;18.20;49.09;93437.41;2029340;70;20160;-76
2023/09/25 09:12:01;;;;;;;2.83;1.17;;;;;;;19.71;46.67;93435.84;2028700;70;20623;-76
2023/09/25 09:14:36;;;;;;;3.58;1.20;;;;;;;19.15;46.77;93434.28;2028228;70;20173;-76
2023/09/25 09:17:06;;;;;;;1.42;1.17;;;;;;;19.82;45.48;93430.50;2028083;70;20160;-75
2023/09/25 09:19:51;;;;;;;2.03;1.30;;;;;;;19.12;45.81;93429.91;2028928;70;20163;-76
2023/09/25 09:22:18;;;;;;;1.50;1.20;;;;;;;19.03;46.34;93423.13;2029421;70;20148;-75
2023/09/25 09:24:44;;;;;;;2.40;1.20;;;;;;;19.84;45.58;93425.63;2028193;70;20137;-76
2023/09/25 09:27:11;;;;;;;2.58;1.27;;;;;;;19.37;44.50;93423.03;2029160;70;20177;-75
2023/09/25 09:29:38;;;;;;;1.85;1.10;;;;;;;20.80;44.47;93426.19;2029144;70;20180;-75
2023/09/25 09:32:05;;;;;;;1.88;1.02;;;;;;;20.92;42.66;93423.03;2029241;70;20594;-75
2023/09/25 09:34:33;;;;;;;1.08;0.90;;;;;;;21.06;42.98;93412.78;2029013;70;20253;-76
2023/09/25 09:37:00;;;;;;;3.60;1.05;;;;;;;20.70;43.90;93414.41;2029330;70;20156;-76
2023/09/25 09:39:34;;;;;;;2.90;0.90;;;;;;;21.57;42.23;93410.84;2029258;70;20196;-76
2023/09/25 09:42:05;;;;;;;1.83;1.25;;;;;;;22.12;40.24;93406.78;2029124;70;20133;-76
2023/09/25 09:44:33;;;;;;;3.22;1.10;;;;;;;23.11;40.32;93396.56;2028763;70;20232;-76
2023/09/25 09:47:07;;;;;;;4.25;1.10;;;;;;;22.69;39.49;93399.06;2026335;70;20153;-76
2023/09/25 09:49:36;;;;;;;2.13;1.23;;;;;;;21.54;40.90;93406.47;2028956;70;20172;-76
2023/09/25 09:52:07;;;;;;;1.23;1.08;;;;;;;23.34;40.49;93395.72;2026662;70;20160;-76
2023/09/25 09:54:37;;;;;;;1.35;1.10;;;;;;;22.57;39.93;93388.69;2029237;70;20261;-77
2023/09/25 09:57:02;;;;;;;1.63;1.10;;;;;;;22.82;38.34;93380.75;2029554;70;20166;-76
2023/09/25 09:59:29;;;;;;;3.97;1.10;;;;;;;23.21;38.53;93381.72;2029830;70;20145;-77
2023/09/25 10:01:59;;;;;;;1.52;1.10;;;;;;;23.37;38.76;93379.25;2029767;70;20156;-76
2023/09/25 10:04:29;;;;;;;1.30;0.90;;;;;;;24.29;37.22;93369.78;2028955;70;20214;-76
2023/09/25 10:07:05;;;;;;;1.75;1.17;;;;;;;24.16;36.14;93368.81;2029412;70;20144;-75
2023/09/25 10:09:31;;;;;;;1.35;0.90;;;;;;;25.22;36.28;93365.06;2028973;70;20338;-76
2023/09/25 10:12:00;;;;;;;1.15;0.90;;;;;;;25.43;35.88;93366.13;2029287;70;20144;-76
2023/09/25 10:14:29;;;;;;;2.35;1.00;;;;;;;25.92;33.02;93354.59;2029927;70;20152;-76
2023/09/25 10:17:00;;;;;;;2.22;1.00;;;;;;;24.99;34.03;93355.28;2029892;70;20156;-76
2023/09/25 10:19:41;;;;;;;2.63;1.02;;;;;;;25.59;35.31;93360.59;2028205;70;20255;-76
2023/09/25 10:22:13;;;;;;;1.80;1.00;;;;;;;26.29;33.61;93350.03;2029770;70;20160;-75
2023/09/25 10:24:45;;;;;;;1.40;0.90;;;;;;;27.75;31.69;93344.25;2029751;70;20197;-75
2023/09/25 10:27:13;;;;;;;2.25;0.80;;;;;;;26.96;33.17;93347.91;2026282;70;20164;-76
2023/09/25 10:29:39;;;;;;;4.40;1.00;;;;;;;28.11;31.55;93343.75;2029040;70;20180;-75
2023/09/25 10:32:14;;;;;;;1.35;1.00;;;;;;;29.46;30.05;93347.78;2032344;70;20600;-76
2023/09/25 10:34:41;;;;;;;1.08;0.95;;;;;;;31.03;28.58;93337.94;2031795;70;20624;-76
2023/09/25 10:37:07;;;;;;;1.30;0.90;;;;;;;30.63;27.66;93346.09;2032299;70;20597;-76
2023/09/25 10:39:33;;;;;;;1.67;0.90;;;;;;;30.00;27.86;93343.38;2032062;70;20174;-75
2023/09/25 10:42:09;;;;;;;1.65;0.80;;;;;;;31.16;27.81;93341.47;2029159;70;20240;-76
2023/09/25 10:44:36;;;;;;;2.17;0.95;;;;;;;32.10;26.11;93344.38;2028212;70;20664;-76
2023/09/25 10:47:09;;;;;;;1.23;0.80;;;;;;;32.59;26.34;93338.75;2028367;70;20144;-75
2023/09/25 10:49:36;;;;;;;1.67;0.95;;;;;;;31.84;26.02;93333.69;2029291;70;20153;-76
2023/09/25 10:52:03;;;;;;;1.55;0.90;;;;;;;33.96;25.04;93333.88;2029271;70;20168;-76
2023/09/25 10:54:33;;;;;;;2.17;1.05;;;;;;;33.71;24.24;93347.41;2029134;70;20536;-76
2023/09/25 10:56:59;;;;;;;1.60;0.80;;;;;;;32.80;24.24;93341.38;2027358;70;20165;-75
2023/09/25 10:59:28;;;;;;;1.20;0.90;;;;;;;32.77;25.38;93326.13;2029347;70;20224;-75
2023/09/25 11:01:54;;;;;;;1.83;0.85;;;;;;;34.56;24.12;93331.28;2029638;70;20148;-75
2023/09/25 11:04:19;;;;;;;1.98;0.95;;;;;;;35.44;24.63;93334.53;2028665;70;20212;-76
2023/09/25 11:06:45;;;;;;;1.27;0.90;;;;;;;33.32;24.24;93322.47;2029147;70;20224;-75
2023/09/25 11:09:18;;;;;;;2.17;0.90;;;;;;;33.99;23.73;93329.41;2028931;70;20244;-75
2023/09/25 11:11:45;;;;;;;1.10;0.80;;;;;;;35.37;22.80;93325.16;2029159;70;20157;-76
2023/09/25 11:14:11;;;;;;;0.90;0.82;;;;;;;37.21;22.91;93321.06;2029545;70;20157;-77
2023/09/25 11:16:37;;;;;;;1.45;0.90;;;;;;;37.99;22.19;93321.56;2029807;70;20236;-74
2023/09/25 11:19:14;;;;;;;2.15;1.00;;;;;;;38.82;20.63;93321.59;2029641;70;20236;-75
2023/09/25 11:21:41;;;;;;;0.75;0.63;;;;;;;39.61;20.68;93325.97;2029959;70;20161;-74
2023/09/25 11:24:08;;;;;;;0.98;0.80;;;;;;;40.62;19.33;93329.88;2030031;70;20156;-74
2023/09/25 11:26:39;;;;;;;0.70;0.70;;;;;;;41.81;18.74;93322.22;2029164;70;20168;-74
2023/09/25 11:29:09;;;;;;;2.97;0.80;;;;;;;42.90;18.57;93320.44;2029634;70;20175;-74
2023/09/25 11:31:36;;;;;;;0.88;0.73;;;;;;;40.19;20.70;93321.44;2029411;70;20209;-74
2023/09/25 11:34:03;;;;;;;1.83;0.88;;;;;;;41.54;18.55;93313.19;2029761;70;20593;-74
2023/09/25 11:36:30;;;;;;;1.80;0.80;;;;;;;41.32;19.33;93312.00;2029312;70;20149;-74
2023/09/25 11:38:57;;;;;;;1.25;0.82;;;;;;;39.01;19.13;93309.84;2029520;70;20153;-74